createdAt,value
2018-09-22T00:01:02.636Z,10.61
2018-09-22T00:02:12.561Z,10.52
2018-09-22T00:03:22.190Z,10.42
2018-09-22T00:04:32.128Z,10.52
2018-09-22T00:05:41.753Z,10.45
2018-09-22T00:06:51.916Z,10.45
2018-09-22T00:08:01.839Z,10.41
2018-09-22T00:09:11.736Z,10.55
2018-09-22T00:10:21.378Z,10.42
2018-09-22T00:11:31.274Z,10.56
2018-09-22T00:12:40.615Z,10.53
2018-09-22T00:13:50.780Z,10.6
2018-09-22T00:15:00.400Z,10.52
2018-09-22T00:16:10.565Z,10.48
2018-09-22T00:17:19.942Z,10.47
2018-09-22T00:18:29.827Z,10.53
2018-09-22T00:19:39.500Z,10.55
2018-09-22T00:20:49.151Z,10.42
2018-09-22T00:21:59.292Z,10.55
2018-09-22T00:23:09.031Z,10.52
2018-09-22T00:24:18.963Z,10.61
2018-09-22T00:25:28.864Z,10.53
2018-09-22T00:26:38.793Z,10.48
2018-09-22T00:27:48.558Z,10.63
2018-09-22T00:28:58.717Z,10.52
2018-09-22T00:30:08.062Z,10.63
2018-09-22T00:31:17.676Z,10.63
2018-09-22T00:32:27.566Z,10.7
2018-09-22T00:33:37.180Z,10.67
2018-09-22T00:34:46.799Z,10.63
2018-09-22T00:35:56.685Z,10.6
2018-09-22T00:37:06.298Z,10.63
2018-09-22T00:38:15.645Z,10.71
2018-09-22T00:39:25.815Z,10.66
2018-09-22T00:40:35.978Z,10.6
2018-09-22T00:41:45.328Z,10.52
2018-09-22T00:42:54.940Z,10.6
2018-09-22T00:44:04.824Z,10.73
2018-09-22T00:45:14.449Z,10.64
2018-09-22T00:46:24.375Z,10.7
2018-09-22T00:47:34.539Z,10.71
2018-09-22T00:48:44.741Z,10.63
2018-09-22T00:49:54.965Z,10.68
2018-09-22T00:51:05.135Z,10.56
2018-09-22T00:52:15.027Z,10.66
2018-09-22T00:53:24.371Z,10.68
2018-09-22T00:54:33.989Z,10.74
2018-09-22T00:55:43.053Z,10.74
2018-09-22T00:56:52.664Z,10.78
2018-09-22T00:58:02.869Z,10.82
2018-09-22T00:59:12.836Z,10.73
2018-09-22T01:00:22.758Z,10.84
2018-09-22T01:01:32.648Z,10.74
2018-09-22T01:02:42.825Z,10.88
2018-09-22T01:03:52.991Z,10.99
2018-09-22T01:05:02.621Z,10.92
2018-09-22T01:06:12.235Z,10.88
2018-09-22T01:07:22.128Z,10.91
2018-09-22T01:08:32.258Z,10.92
2018-09-22T01:09:41.602Z,11
2018-09-22T01:10:51.489Z,11.03
2018-09-22T01:12:01.406Z,11.04
2018-09-22T01:13:11.300Z,11.14
2018-09-22T01:14:21.229Z,11.25
2018-09-22T01:15:30.948Z,11.15
2018-09-22T01:16:41.452Z,11.18
2018-09-22T01:17:51.681Z,11.06
2018-09-22T01:19:01.293Z,11.03
2018-09-22T01:20:11.228Z,10.91
2018-09-22T01:21:21.151Z,11.03
2018-09-22T01:22:30.773Z,11.04
2018-09-22T01:23:40.117Z,11.14
2018-09-22T01:24:50.039Z,11.25
2018-09-22T01:25:59.659Z,11.18
2018-09-22T01:27:09.273Z,11.09
2018-09-22T01:28:19.197Z,11.07
2018-09-22T01:29:29.106Z,11.07
2018-09-22T01:30:38.995Z,11.06
2018-09-22T01:31:48.937Z,11.06
2018-09-22T01:32:58.568Z,11
2018-09-22T01:34:08.734Z,11.02
2018-09-22T01:35:18.347Z,11.09
2018-09-22T01:36:27.961Z,11.03
2018-09-22T01:37:37.844Z,10.97
2018-09-22T01:38:47.504Z,11.04
2018-09-22T01:39:57.389Z,10.91
2018-09-22T01:41:07.007Z,10.94
2018-09-22T01:42:16.910Z,10.84
2018-09-22T01:43:27.041Z,10.92
2018-09-22T01:44:37.204Z,10.86
2018-09-22T01:45:46.816Z,10.92
2018-09-22T01:46:56.983Z,10.96
2018-09-22T01:48:06.956Z,10.81
2018-09-22T01:49:16.298Z,10.88
2018-09-22T01:50:26.471Z,10.84
2018-09-22T01:51:36.083Z,10.82
2018-09-22T01:52:45.429Z,10.73
2018-09-22T01:53:55.044Z,10.71
2018-09-22T01:55:04.118Z,10.74
2018-09-22T01:56:13.734Z,10.79
2018-09-22T01:57:23.624Z,10.89
2018-09-22T01:58:33.519Z,10.78
2018-09-22T01:59:43.750Z,10.86
2018-09-22T02:00:53.638Z,10.84
2018-09-22T02:02:03.526Z,10.78
2018-09-22T02:03:13.726Z,10.73
2018-09-22T02:04:23.070Z,10.59
2018-09-22T02:05:32.965Z,10.51
2018-09-22T02:06:42.551Z,10.74
2018-09-22T02:07:52.470Z,10.73
2018-09-22T02:09:02.086Z,10.63
2018-09-22T02:10:11.157Z,10.66
2018-09-22T02:11:20.496Z,10.51
2018-09-22T02:12:30.660Z,10.59
2018-09-22T02:13:40.554Z,10.79
2018-09-22T02:14:49.905Z,10.61
2018-09-22T02:15:59.219Z,10.6
2018-09-22T02:17:08.839Z,10.55
2018-09-22T02:18:18.729Z,10.66
2018-09-22T02:19:28.667Z,10.64
2018-09-22T02:20:38.560Z,10.61
2018-09-22T02:21:48.457Z,10.51
2018-09-22T02:22:58.076Z,10.42
2018-09-22T02:24:07.522Z,10.85
2018-09-22T02:25:17.413Z,10.51
2018-09-22T02:26:26.759Z,10.48
2018-09-22T02:27:36.925Z,10.55
2018-09-22T02:28:46.822Z,10.52
2018-09-22T02:29:56.711Z,10.45
2018-09-22T02:31:06.889Z,10.48
2018-09-22T02:32:16.779Z,10.38
2018-09-22T02:33:26.675Z,10.33
2018-09-22T02:34:36.019Z,10.42
2018-09-22T02:35:45.665Z,10.4
2018-09-22T02:36:55.644Z,10.36
2018-09-22T02:38:05.534Z,10.26
2018-09-22T02:39:15.740Z,10.36
2018-09-22T02:40:25.937Z,10.3
2018-09-22T02:41:36.156Z,10.33
2018-09-22T02:42:45.815Z,10.3
2018-09-22T02:43:55.172Z,10.3
2018-09-22T02:45:05.075Z,10.41
2018-09-22T02:46:14.694Z,10.27
2018-09-22T02:47:24.318Z,10.44
2018-09-22T02:48:33.957Z,10.27
2018-09-22T02:49:44.137Z,10.27
2018-09-22T02:50:54.314Z,10.4
2018-09-22T02:52:04.208Z,10.33
2018-09-22T02:53:13.821Z,10.38
2018-09-22T02:54:23.716Z,10.4
2018-09-22T02:55:33.063Z,10.36
2018-09-22T02:56:43.238Z,10.36
2018-09-22T02:57:53.401Z,10.29
2018-09-22T02:59:03.636Z,10.38
2018-09-22T03:00:13.527Z,10.34
2018-09-22T03:01:23.695Z,10.42
2018-09-22T03:02:33.323Z,10.22
2018-09-22T03:03:43.210Z,10.36
2018-09-22T03:04:53.150Z,10.36
2018-09-22T03:06:03.081Z,10.29
2018-09-22T03:07:13.251Z,10.25
2018-09-22T03:08:23.144Z,10.22
2018-09-22T03:09:32.759Z,10.3
2018-09-22T03:10:42.655Z,10.53
2018-09-22T03:11:52.001Z,10.38
2018-09-22T03:13:01.906Z,10.29
2018-09-22T03:14:11.264Z,10.25
2018-09-22T03:15:21.001Z,10.27
2018-09-22T03:16:31.142Z,10.36
2018-09-22T03:17:41.328Z,10.4
2018-09-22T03:18:50.689Z,10.4
2018-09-22T03:20:00.863Z,10.7
2018-09-22T03:21:11.079Z,10.52
2018-09-22T03:22:20.693Z,10.48
2018-09-22T03:23:30.310Z,10.42
2018-09-22T03:24:39.648Z,10.44
2018-09-22T03:25:49.539Z,10.42
2018-09-22T03:26:59.432Z,10.38
2018-09-22T03:28:09.051Z,10.41
2018-09-22T03:29:18.672Z,10.4
2018-09-22T03:30:29.063Z,10.32
2018-09-22T03:31:38.975Z,10.47
2018-09-22T03:32:48.911Z,10.44
2018-09-22T03:33:58.529Z,10.4
2018-09-22T03:35:08.705Z,10.48
2018-09-22T03:36:18.321Z,10.29
2018-09-22T03:37:27.669Z,10.42
2018-09-22T03:38:37.290Z,10.42
2018-09-22T03:39:46.899Z,10.44
2018-09-22T03:40:56.544Z,10.53
2018-09-22T03:42:06.205Z,10.4
2018-09-22T03:43:16.094Z,10.51
2018-09-22T03:44:26.259Z,10.45
2018-09-22T03:45:36.151Z,10.44
2018-09-22T03:46:46.051Z,10.42
2018-09-22T03:47:56.221Z,10.42
2018-09-22T03:49:06.111Z,10.47
2018-09-22T03:50:16.065Z,10.44
2018-09-22T03:51:25.955Z,10.73
2018-09-22T03:52:35.303Z,10.6
2018-09-22T03:53:45.190Z,10.42
2018-09-22T03:54:55.295Z,10.53
2018-09-22T03:56:05.206Z,10.48
2018-09-22T03:57:14.832Z,10.55
2018-09-22T03:58:24.734Z,10.56
2018-09-22T03:59:34.902Z,10.64
2018-09-22T04:00:44.843Z,10.7
2018-09-22T04:01:54.763Z,10.56
2018-09-22T04:03:04.939Z,10.53
2018-09-22T04:04:14.878Z,10.64
2018-09-22T04:05:24.504Z,10.66
2018-09-22T04:06:34.678Z,10.64
2018-09-22T04:07:44.853Z,10.61
2018-09-22T04:08:54.752Z,10.64
2018-09-22T04:10:04.646Z,10.64
2018-09-22T04:11:14.536Z,10.71
2018-09-22T04:12:24.440Z,10.71
2018-09-22T04:13:34.057Z,10.74
2018-09-22T04:14:43.733Z,10.74
2018-09-22T04:15:53.633Z,10.92
2018-09-22T04:17:03.551Z,10.82
2018-09-22T04:18:13.714Z,10.79
2018-09-22T04:19:23.613Z,10.84
2018-09-22T04:20:33.503Z,10.89
2018-09-22T04:21:43.710Z,10.84
2018-09-22T04:22:53.665Z,10.86
2018-09-22T04:24:03.869Z,10.94
2018-09-22T04:25:13.492Z,10.88
2018-09-22T04:26:23.425Z,10.89
2018-09-22T04:27:33.323Z,10.92
2018-09-22T04:28:42.941Z,10.88
2018-09-22T04:29:53.043Z,10.97
2018-09-22T04:31:03.135Z,10.99
2018-09-22T04:32:13.040Z,11.04
2018-09-22T04:33:23.335Z,10.96
2018-09-22T04:34:33.212Z,10.91
2018-09-22T04:35:43.107Z,11.06
2018-09-22T04:36:52.454Z,11.07
2018-09-22T04:38:02.612Z,11.06
2018-09-22T04:39:12.236Z,11.09
2018-09-22T04:40:22.127Z,10.94
2018-09-22T04:41:31.746Z,10.99
2018-09-22T04:42:42.180Z,11
2018-09-22T04:43:51.522Z,11.04
2018-09-22T04:45:01.139Z,10.99
2018-09-22T04:46:11.030Z,10.96
2018-09-22T04:47:20.926Z,10.99
2018-09-22T04:48:31.113Z,11.11
2018-09-22T04:49:40.452Z,11.04
2018-09-22T04:50:49.797Z,11.03
2018-09-22T04:51:59.727Z,11.03
2018-09-22T04:53:09.348Z,11.06
2018-09-22T04:54:19.240Z,11.04
2018-09-22T04:55:28.859Z,11.03
2018-09-22T04:56:38.480Z,11.04
2018-09-22T04:57:47.813Z,11.04
2018-09-22T04:58:57.149Z,11.1
2018-09-22T05:00:06.500Z,10.94
2018-09-22T05:01:16.120Z,10.99
2018-09-22T05:02:26.009Z,10.96
2018-09-22T05:03:35.349Z,11
2018-09-22T05:04:44.966Z,11.02
2018-09-22T05:05:55.137Z,11.03
2018-09-22T05:07:04.801Z,11.02
2018-09-22T05:08:14.961Z,10.88
2018-09-22T05:09:25.139Z,10.92
2018-09-22T05:10:35.529Z,11.06
2018-09-22T05:11:45.153Z,11.04
2018-09-22T05:12:55.067Z,10.97
2018-09-22T05:14:04.693Z,10.99
2018-09-22T05:15:14.913Z,10.91
2018-09-22T05:16:24.526Z,10.99
2018-09-22T05:17:34.426Z,10.86
2018-09-22T05:18:44.038Z,10.88
2018-09-22T05:19:53.931Z,10.91
2018-09-22T05:21:03.563Z,10.86
2018-09-22T05:22:13.664Z,10.92
2018-09-22T05:23:23.564Z,10.86
2018-09-22T05:24:33.550Z,10.88
2018-09-22T05:25:43.494Z,10.84
2018-09-22T05:26:53.401Z,10.85
2018-09-22T05:28:03.291Z,10.94
2018-09-22T05:29:12.908Z,10.91
2018-09-22T05:30:23.071Z,10.84
2018-09-22T05:31:32.970Z,10.85
2018-09-22T05:32:43.138Z,10.92
2018-09-22T05:33:53.029Z,10.88
2018-09-22T05:35:02.854Z,10.94
2018-09-22T05:36:12.760Z,10.97
2018-09-22T05:37:22.658Z,10.89
2018-09-22T05:38:32.547Z,10.85
2018-09-22T05:39:42.476Z,10.92
2018-09-22T05:40:52.571Z,10.91
2018-09-22T05:42:02.473Z,10.81
2018-09-22T05:43:12.093Z,11.02
2018-09-22T05:44:22.031Z,10.99
2018-09-22T05:45:31.659Z,11
2018-09-22T05:46:41.826Z,10.89
2018-09-22T05:47:51.718Z,10.97
2018-09-22T05:49:01.365Z,10.81
2018-09-22T05:50:11.524Z,10.85
2018-09-22T05:51:21.458Z,10.88
2018-09-22T05:52:31.582Z,10.88
2018-09-22T05:53:41.480Z,10.86
2018-09-22T05:54:51.095Z,10.92
2018-09-22T05:56:00.984Z,10.84
2018-09-22T05:57:11.161Z,10.88
2018-09-22T05:58:21.330Z,10.99
2018-09-22T05:59:31.568Z,11.02
2018-09-22T06:00:41.488Z,10.89
2018-09-22T06:01:51.390Z,10.88
2018-09-22T06:03:01.278Z,10.91
2018-09-22T06:04:10.618Z,10.97
2018-09-22T06:05:20.545Z,10.91
2018-09-22T06:06:30.190Z,10.91
2018-09-22T06:07:40.121Z,10.94
2018-09-22T06:08:49.735Z,10.92
2018-09-22T06:09:59.619Z,10.92
2018-09-22T06:11:09.240Z,10.92
2018-09-22T06:12:18.851Z,11
2018-09-22T06:13:28.473Z,10.89
2018-09-22T06:14:38.100Z,10.92
2018-09-22T06:15:48.266Z,10.97
2018-09-22T06:16:58.438Z,11.06
2018-09-22T06:18:08.041Z,11.04
2018-09-22T06:19:17.970Z,11.06
2018-09-22T06:20:28.121Z,11.04
2018-09-22T06:21:38.014Z,11.1
2018-09-22T06:22:47.905Z,11.1
2018-09-22T06:23:57.799Z,11.11
2018-09-22T06:25:07.420Z,11.28
2018-09-22T06:26:17.608Z,11.15
2018-09-22T06:27:27.766Z,11.15
2018-09-22T06:28:37.688Z,11.17
2018-09-22T06:29:47.652Z,11.33
2018-09-22T06:30:57.538Z,11.06
2018-09-22T06:32:07.192Z,11.1
2018-09-22T06:33:17.349Z,11.09
2018-09-22T06:34:27.251Z,11.21
2018-09-22T06:35:37.140Z,11.29
2018-09-22T06:36:47.471Z,11.22
2018-09-22T06:37:57.353Z,11.25
2018-09-22T06:39:06.691Z,11.27
2018-09-22T06:40:16.868Z,11.21
2018-09-22T06:41:26.755Z,11.29
2018-09-22T06:42:36.920Z,11.42
2018-09-22T06:43:46.825Z,11.47
2018-09-22T06:44:56.973Z,11.44
2018-09-22T06:46:06.685Z,11.46
2018-09-22T06:47:16.731Z,11.46
2018-09-22T06:48:26.623Z,11.44
2018-09-22T06:49:36.236Z,11.42
2018-09-22T06:50:45.859Z,11.51
2018-09-22T06:51:56.016Z,11.52
2018-09-22T06:53:05.913Z,11.55
2018-09-22T06:54:15.530Z,11.52
2018-09-22T06:55:24.868Z,11.55
2018-09-22T06:56:34.758Z,11.52
2018-09-22T06:57:44.955Z,11.61
2018-09-22T06:58:54.843Z,11.73
2018-09-22T07:00:04.191Z,11.69
2018-09-22T07:01:13.542Z,11.65
2018-09-22T07:02:23.696Z,11.65
2018-09-22T07:03:33.687Z,11.72
2018-09-22T07:04:43.585Z,11.65
2018-09-22T07:05:53.470Z,11.64
2018-09-22T07:07:03.090Z,11.62
2018-09-22T07:08:13.250Z,11.67
2018-09-22T07:09:23.417Z,11.8
2018-09-22T07:10:33.578Z,11.78
2018-09-22T07:11:43.254Z,11.72
2018-09-22T07:12:53.185Z,11.82
2018-09-22T07:14:03.312Z,11.78
2018-09-22T07:15:13.209Z,11.8
2018-09-22T07:16:23.384Z,11.9
2018-09-22T07:17:32.990Z,11.95
2018-09-22T07:18:43.147Z,11.94
2018-09-22T07:19:53.042Z,12.04
2018-09-22T07:21:02.659Z,12.05
2018-09-22T07:22:12.003Z,12.16
2018-09-22T07:23:22.177Z,12.17
2018-09-22T07:24:32.346Z,12.13
2018-09-22T07:25:41.992Z,12.16
2018-09-22T07:26:51.618Z,12.21
2018-09-22T07:28:00.958Z,12.27
2018-09-22T07:29:11.318Z,12.29
2018-09-22T07:30:21.478Z,12.28
2018-09-22T07:31:31.638Z,12.32
2018-09-22T07:32:41.033Z,12.34
2018-09-22T07:33:50.919Z,12.35
2018-09-22T07:35:00.536Z,12.41
2018-09-22T07:36:10.153Z,12.46
2018-09-22T07:37:20.060Z,12.41
2018-09-22T07:38:30.228Z,12.5
2018-09-22T07:39:40.122Z,12.5
2018-09-22T07:40:50.307Z,12.49
2018-09-22T07:42:00.199Z,12.56
2018-09-22T07:43:10.092Z,12.49
2018-09-22T07:44:19.719Z,12.62
2018-09-22T07:45:29.339Z,12.67
2018-09-22T07:46:39.245Z,12.62
2018-09-22T07:47:49.407Z,12.68
2018-09-22T07:48:59.301Z,12.67
2018-09-22T07:50:08.990Z,12.79
2018-09-22T07:51:18.880Z,12.77
2018-09-22T07:52:29.092Z,12.82
2018-09-22T07:53:38.715Z,12.96
2018-09-22T07:54:48.068Z,12.83
2018-09-22T07:55:58.239Z,12.86
2018-09-22T07:57:08.037Z,12.85
2018-09-22T07:58:17.469Z,12.89
2018-09-22T07:59:27.399Z,12.96
2018-09-22T08:00:37.914Z,13.04
2018-09-22T08:01:48.081Z,13
2018-09-22T08:02:58.277Z,13.03
2018-09-22T08:04:08.171Z,13.17
2018-09-22T08:05:18.374Z,13.19
2018-09-22T08:06:28.260Z,13.17
2018-09-22T08:07:38.145Z,13.3
2018-09-22T08:08:48.076Z,13.32
2018-09-22T08:09:58.265Z,13.32
2018-09-22T08:11:07.535Z,13.41
2018-09-22T08:12:17.164Z,13.3
2018-09-22T08:13:27.062Z,13.32
2018-09-22T08:14:36.685Z,13.42
2018-09-22T08:15:46.587Z,13.48
2018-09-22T08:16:56.482Z,13.48
2018-09-22T08:18:06.177Z,13.42
2018-09-22T08:19:16.062Z,13.48
2018-09-22T08:20:25.688Z,13.55
2018-09-22T08:21:35.854Z,13.59
2018-09-22T08:22:45.481Z,13.46
2018-09-22T08:23:55.391Z,13.55
2018-09-22T08:25:05.055Z,13.62
2018-09-22T08:26:14.526Z,13.52
2018-09-22T08:27:24.694Z,13.62
2018-09-22T08:28:34.590Z,13.52
2018-09-22T08:29:44.495Z,13.52
2018-09-22T08:30:54.114Z,13.59
2018-09-22T08:32:04.155Z,13.59
2018-09-22T08:33:14.150Z,13.63
2018-09-22T08:34:24.314Z,13.59
2018-09-22T08:35:34.204Z,13.63
2018-09-22T08:36:44.983Z,13.63
2018-09-22T08:37:54.830Z,13.67
2018-09-22T08:39:04.447Z,13.73
2018-09-22T08:40:14.379Z,13.81
2018-09-22T08:41:24.268Z,13.71
2018-09-22T08:42:33.929Z,13.75
2018-09-22T08:43:43.582Z,13.77
2018-09-22T08:44:53.619Z,13.71
2018-09-22T08:46:04.033Z,13.79
2018-09-22T08:47:13.654Z,13.78
2018-09-22T08:48:23.845Z,13.85
2018-09-22T08:49:34.181Z,13.84
2018-09-22T08:50:43.953Z,13.96
2018-09-22T08:51:54.124Z,13.96
2018-09-22T08:53:04.047Z,14.03
2018-09-22T08:54:13.387Z,14.1
2018-09-22T08:55:23.283Z,14.09
2018-09-22T08:56:33.457Z,14.1
2018-09-22T08:57:42.835Z,14.21
2018-09-22T08:58:52.798Z,14.21
2018-09-22T09:00:02.703Z,14.27
2018-09-22T09:01:12.876Z,14.22
2018-09-22T09:02:23.036Z,14.29
2018-09-22T09:03:33.204Z,14.35
2018-09-22T09:04:43.102Z,14.4
2018-09-22T09:05:53.284Z,14.33
2018-09-22T09:07:03.279Z,14.43
2018-09-22T09:08:13.163Z,14.52
2018-09-22T09:09:23.068Z,14.54
2018-09-22T09:10:32.685Z,14.62
2018-09-22T09:11:42.846Z,14.68
2018-09-22T09:12:52.469Z,14.75
2018-09-22T09:14:02.134Z,14.72
2018-09-22T09:15:12.309Z,14.72
2018-09-22T09:16:21.939Z,14.7
2018-09-22T09:17:31.610Z,14.72
2018-09-22T09:18:41.785Z,14.77
2018-09-22T09:19:51.957Z,14.75
2018-09-22T09:21:01.306Z,14.77
2018-09-22T09:22:11.198Z,14.8
2018-09-22T09:23:21.395Z,14.84
2018-09-22T09:24:31.294Z,14.88
2018-09-22T09:25:41.184Z,14.86
2018-09-22T09:26:51.080Z,14.89
2018-09-22T09:28:00.963Z,14.94
2018-09-22T09:29:10.314Z,14.92
2018-09-22T09:30:20.265Z,14.75
2018-09-22T09:31:30.165Z,14.83
2018-09-22T09:32:39.509Z,14.89
2018-09-22T09:33:49.410Z,14.83
2018-09-22T09:34:59.066Z,14.96
2018-09-22T09:36:08.778Z,14.95
2018-09-22T09:37:18.678Z,15.13
2018-09-22T09:38:28.575Z,15.21
2018-09-22T09:39:38.303Z,15.25
2018-09-22T09:40:48.195Z,15.28
2018-09-22T09:41:58.095Z,15.32
2018-09-22T09:43:07.953Z,15.23
2018-09-22T09:44:17.626Z,15.29
2018-09-22T09:45:27.516Z,15.21
2018-09-22T09:46:37.143Z,15.27
2018-09-22T09:47:46.776Z,15.28
2018-09-22T09:48:56.127Z,15.32
2018-09-22T09:50:06.035Z,15.23
2018-09-22T09:51:16.207Z,15.29
2018-09-22T09:52:26.388Z,15.31
2018-09-22T09:53:36.063Z,15.43
2018-09-22T09:54:46.104Z,15.46
2018-09-22T09:55:56.210Z,15.57
2018-09-22T09:57:06.101Z,15.56
2018-09-22T09:58:15.999Z,15.54
2018-09-22T09:59:26.165Z,15.54
2018-09-22T10:00:36.332Z,15.5
2018-09-22T10:01:46.563Z,15.47
2018-09-22T10:02:55.901Z,15.57
2018-09-22T10:04:05.520Z,15.53
2018-09-22T10:05:15.142Z,15.68
2018-09-22T10:06:25.062Z,15.65
2018-09-22T10:07:34.962Z,15.65
2018-09-22T10:08:45.162Z,15.71
2018-09-22T10:09:55.069Z,15.64
2018-09-22T10:11:05.016Z,15.64
2018-09-22T10:12:14.942Z,15.68
2018-09-22T10:13:25.133Z,15.75
2018-09-22T10:14:34.719Z,15.76
2018-09-22T10:15:44.349Z,15.89
2018-09-22T10:16:54.247Z,15.89
2018-09-22T10:18:03.321Z,15.83
2018-09-22T10:19:13.519Z,15.78
2018-09-22T10:20:23.615Z,15.8
2018-09-22T10:21:33.519Z,15.87
2018-09-22T10:22:43.678Z,16
2018-09-22T10:23:53.303Z,16.01
2018-09-22T10:25:02.925Z,16.08
2018-09-22T10:26:12.546Z,16.11
2018-09-22T10:27:22.709Z,15.97
2018-09-22T10:28:32.721Z,15.93
2018-09-22T10:29:42.385Z,16.02
2018-09-22T10:30:51.928Z,16.01
2018-09-22T10:32:01.822Z,16.01
2018-09-22T10:33:11.716Z,16.05
2018-09-22T10:34:21.146Z,16
2018-09-22T10:35:31.311Z,15.96
2018-09-22T10:36:40.658Z,16.01
2018-09-22T10:37:49.999Z,15.97
2018-09-22T10:38:59.613Z,16
2018-09-22T10:40:09.776Z,15.94
2018-09-22T10:41:19.941Z,15.97
2018-09-22T10:42:29.835Z,16.02
2018-09-22T10:43:39.767Z,15.97
2018-09-22T10:44:49.389Z,16.07
2018-09-22T10:45:59.388Z,16.12
2018-09-22T10:47:09.282Z,16.05
2018-09-22T10:48:19.186Z,16.08
2018-09-22T10:49:28.834Z,16.05
2018-09-22T10:50:38.463Z,16.02
2018-09-22T10:51:48.413Z,16.12
2018-09-22T10:52:58.432Z,16.25
2018-09-22T10:54:08.702Z,16.24
2018-09-22T10:55:18.347Z,16.25
2018-09-22T10:56:28.512Z,16.3
2018-09-22T10:57:38.482Z,16.27
2018-09-22T10:58:48.371Z,16.15
2018-09-22T10:59:58.271Z,16.15
2018-09-22T11:01:07.619Z,16.24
2018-09-22T11:02:17.782Z,16.28
2018-09-22T11:03:27.610Z,16.33
2018-09-22T11:04:37.026Z,16.23
2018-09-22T11:05:47.431Z,16.25
2018-09-22T11:06:57.599Z,16.27
2018-09-22T11:08:07.227Z,16.33
2018-09-22T11:09:16.852Z,16.39
2018-09-22T11:10:26.467Z,16.43
2018-09-22T11:11:36.371Z,16.46
2018-09-22T11:12:46.279Z,16.45
2018-09-22T11:13:56.482Z,16.43
2018-09-22T11:15:06.679Z,16.45
2018-09-22T11:16:16.580Z,16.48
2018-09-22T11:17:26.465Z,16.53
2018-09-22T11:18:36.423Z,16.6
2018-09-22T11:19:46.033Z,16.52
2018-09-22T11:20:55.655Z,16.58
2018-09-22T11:22:05.278Z,16.63
2018-09-22T11:23:15.175Z,16.61
2018-09-22T11:24:25.075Z,16.66
2018-09-22T11:25:34.972Z,16.79
2018-09-22T11:26:44.353Z,16.82
2018-09-22T11:27:54.357Z,16.75
2018-09-22T11:29:04.251Z,16.85
2018-09-22T11:30:14.040Z,16.94
2018-09-22T11:31:24.250Z,16.93
2018-09-22T11:32:34.596Z,16.88
2018-09-22T11:33:44.018Z,17.04
2018-09-22T11:34:53.643Z,17.01
2018-09-22T11:36:04.058Z,17.04
2018-09-22T11:37:13.694Z,16.86
2018-09-22T11:38:24.205Z,16.85
2018-09-22T11:39:34.023Z,16.89
2018-09-22T11:40:43.674Z,16.82
2018-09-22T11:41:53.575Z,16.75
2018-09-22T11:43:03.476Z,16.78
2018-09-22T11:44:13.381Z,16.76
2018-09-22T11:45:23.357Z,16.89
2018-09-22T11:46:32.670Z,16.78
2018-09-22T11:47:42.864Z,16.73
2018-09-22T11:48:52.758Z,16.78
2018-09-22T11:50:01.857Z,16.79
2018-09-22T11:51:11.999Z,16.89
2018-09-22T11:52:21.631Z,16.94
2018-09-22T11:53:31.262Z,16.76
2018-09-22T11:54:40.883Z,16.79
2018-09-22T11:55:50.844Z,16.76
2018-09-22T11:57:01.016Z,16.82
2018-09-22T11:58:10.631Z,16.86
2018-09-22T11:59:20.257Z,16.85
2018-09-22T12:00:29.876Z,16.73
2018-09-22T12:01:39.223Z,16.85
2018-09-22T12:02:49.168Z,16.85
2018-09-22T12:03:59.062Z,16.86
2018-09-22T12:05:09.241Z,16.82
2018-09-22T12:06:19.684Z,16.89
2018-09-22T12:07:30.121Z,16.79
2018-09-22T12:08:39.192Z,16.89
2018-09-22T12:09:49.086Z,16.83
2018-09-22T12:10:58.724Z,16.81
2018-09-22T12:12:08.624Z,16.82
2018-09-22T12:13:18.826Z,16.89
2018-09-22T12:14:28.450Z,16.83
2018-09-22T12:15:38.388Z,16.76
2018-09-22T12:16:48.020Z,16.75
2018-09-22T12:17:58.198Z,16.81
2018-09-22T12:19:07.852Z,16.86
2018-09-22T12:20:17.747Z,16.83
2018-09-22T12:21:27.882Z,16.79
2018-09-22T12:22:37.894Z,16.75
2018-09-22T12:23:47.518Z,16.78
2018-09-22T12:24:57.405Z,16.75
2018-09-22T12:26:07.313Z,16.73
2018-09-22T12:27:16.659Z,16.75
2018-09-22T12:28:26.545Z,16.79
2018-09-22T12:29:36.479Z,16.75
2018-09-22T12:30:46.602Z,16.73
2018-09-22T12:31:56.740Z,16.71
2018-09-22T12:33:06.892Z,16.6
2018-09-22T12:34:16.553Z,16.66
2018-09-22T12:35:26.450Z,16.75
2018-09-22T12:36:36.342Z,16.75
2018-09-22T12:37:46.276Z,16.75
2018-09-22T12:38:56.187Z,16.89
2018-09-22T12:40:05.813Z,16.73
2018-09-22T12:41:15.465Z,16.88
2018-09-22T12:42:25.333Z,16.82
2018-09-22T12:43:35.221Z,16.89
2018-09-22T12:44:44.575Z,16.79
2018-09-22T12:45:54.776Z,16.79
2018-09-22T12:47:04.581Z,16.73
2018-09-22T12:48:14.482Z,16.75
2018-09-22T12:49:24.380Z,16.73
2018-09-22T12:50:34.041Z,16.78
2018-09-22T12:51:43.945Z,16.75
2018-09-22T12:52:53.566Z,16.81
2018-09-22T12:54:03.434Z,16.86
2018-09-22T12:55:13.330Z,16.88
2018-09-22T12:56:22.680Z,16.88
2018-09-22T12:57:32.297Z,16.83
2018-09-22T12:58:41.913Z,16.89
2018-09-22T12:59:51.807Z,16.85
2018-09-22T13:01:01.702Z,16.97
2018-09-22T13:02:11.325Z,16.93
2018-09-22T13:03:20.944Z,16.97
2018-09-22T13:04:30.566Z,16.96
2018-09-22T13:05:40.505Z,16.93
2018-09-22T13:06:50.688Z,16.91
2018-09-22T13:08:00.625Z,16.86
2018-09-22T13:09:10.545Z,16.85
2018-09-22T13:10:20.439Z,16.82
2018-09-22T13:11:30.344Z,16.79
2018-09-22T13:12:39.963Z,16.89
2018-09-22T13:13:49.303Z,16.83
2018-09-22T13:14:58.923Z,16.75
2018-09-22T13:16:08.542Z,16.86
2018-09-22T13:17:18.206Z,16.79
2018-09-22T13:18:28.394Z,16.78
2018-09-22T13:19:38.605Z,16.71
2018-09-22T13:20:47.963Z,16.78
2018-09-22T13:21:57.853Z,16.75
2018-09-22T13:23:07.489Z,16.73
2018-09-22T13:24:17.396Z,16.7
2018-09-22T13:25:27.558Z,16.71
2018-09-22T13:26:37.738Z,16.68
2018-09-22T13:27:47.997Z,16.7
2018-09-22T13:28:57.896Z,16.67
2018-09-22T13:30:08.062Z,16.71
2018-09-22T13:31:17.686Z,16.56
2018-09-22T13:32:27.338Z,16.53
2018-09-22T13:33:37.233Z,16.58
2018-09-22T13:34:47.331Z,16.61
2018-09-22T13:35:57.226Z,16.6
2018-09-22T13:37:07.265Z,16.71
2018-09-22T13:38:17.669Z,16.63
2018-09-22T13:39:27.593Z,16.58
2018-09-22T13:40:37.210Z,16.5
2018-09-22T13:41:46.281Z,16.53
2018-09-22T13:42:56.200Z,16.5
2018-09-22T13:44:06.145Z,16.48
2018-09-22T13:45:16.320Z,16.39
2018-09-22T13:46:25.942Z,16.46
2018-09-22T13:47:35.328Z,16.5
2018-09-22T13:48:44.947Z,16.52
2018-09-22T13:49:55.107Z,16.48
2018-09-22T13:51:05.015Z,16.49
2018-09-22T13:52:14.912Z,16.49
2018-09-22T13:53:24.797Z,16.48
2018-09-22T13:54:34.456Z,16.48
2018-09-22T13:55:44.082Z,16.45
2018-09-22T13:56:53.989Z,16.46
2018-09-22T13:58:03.913Z,16.49
2018-09-22T13:59:13.802Z,16.46
2018-09-22T14:00:23.154Z,16.46
2018-09-22T14:01:33.046Z,16.5
2018-09-22T14:02:42.671Z,16.46
2018-09-22T14:03:53.100Z,16.5
2018-09-22T14:05:02.997Z,16.64
2018-09-22T14:06:12.905Z,16.61
2018-09-22T14:07:22.523Z,16.48
2018-09-22T14:08:32.461Z,16.5
2018-09-22T14:09:42.353Z,16.53
2018-09-22T14:10:52.531Z,16.45
2018-09-22T14:12:02.471Z,16.53
2018-09-22T14:13:11.543Z,16.57
2018-09-22T14:14:20.942Z,16.64
2018-09-22T14:15:30.838Z,16.45
2018-09-22T14:16:40.456Z,16.5
2018-09-22T14:17:50.633Z,16.45
2018-09-22T14:18:59.988Z,16.49
2018-09-22T14:20:09.915Z,16.63
2018-09-22T14:21:19.965Z,16.49
2018-09-22T14:22:30.385Z,16.58
2018-09-22T14:23:40.280Z,16.58
2018-09-22T14:24:50.447Z,16.71
2018-09-22T14:26:00.348Z,16.68
2018-09-22T14:27:10.780Z,16.7
2018-09-22T14:28:20.833Z,16.64
2018-09-22T14:29:30.496Z,16.63
2018-09-22T14:30:40.111Z,16.48
2018-09-22T14:31:49.459Z,16.48
2018-09-22T14:32:59.076Z,16.41
2018-09-22T14:34:09.244Z,16.49
2018-09-22T14:35:19.178Z,16.43
2018-09-22T14:36:29.067Z,16.49
2018-09-22T14:37:38.690Z,16.48
2018-09-22T14:38:48.607Z,16.52
2018-09-22T14:39:58.221Z,16.56
2018-09-22T14:41:08.382Z,16.6
2018-09-22T14:42:18.004Z,16.56
2018-09-22T14:43:28.167Z,16.71
2018-09-22T14:44:37.508Z,16.52
2018-09-22T14:45:47.734Z,16.49
2018-09-22T14:46:57.352Z,16.49
2018-09-22T14:48:07.248Z,16.48
2018-09-22T14:49:17.197Z,16.46
2018-09-22T14:50:27.385Z,16.5
2018-09-22T14:51:36.736Z,16.46
2018-09-22T14:52:46.922Z,16.45
2018-09-22T14:53:56.907Z,16.41
2018-09-22T14:55:06.253Z,16.39
2018-09-22T14:56:16.149Z,16.39
2018-09-22T14:57:26.299Z,16.5
2018-09-22T14:58:36.198Z,16.49
2018-09-22T14:59:46.094Z,16.42
2018-09-22T15:00:55.716Z,16.43
2018-09-22T15:02:05.963Z,16.35
2018-09-22T15:03:15.576Z,16.35